sensor_id;sensor_type;location;lat;lon;timestamp;temperature;humidity
11454;DHT22;5783;55.174;61.310;2023-08-06T00:01:05;27.10;59.20
11454;DHT22;5783;55.174;61.310;2023-08-06T00:03:33;27.10;59.20
11454;DHT22;5783;55.174;61.310;2023-08-06T00:06:02;27.10;59.20
11454;DHT22;5783;55.174;61.310;2023-08-06T00:08:30;27.10;59.30
11454;DHT22;5783;55.174;61.310;2023-08-06T00:10:58;27.10;59.30
11454;DHT22;5783;55.174;61.310;2023-08-06T00:13:26;27.10;59.40
11454;DHT22;5783;55.174;61.310;2023-08-06T00:15:54;27.10;59.30
11454;DHT22;5783;55.174;61.310;2023-08-06T00:18:23;27.10;59.30
11454;DHT22;5783;55.174;61.310;2023-08-06T00:20:53;27.10;59.30
11454;DHT22;5783;55.174;61.310;2023-08-06T00:23:22;27.10;59.30
11454;DHT22;5783;55.174;61.310;2023-08-06T00:25:50;27.10;59.30
11454;DHT22;5783;55.174;61.310;2023-08-06T00:28:18;27.10;59.40
11454;DHT22;5783;55.174;61.310;2023-08-06T00:30:52;27.10;59.50
11454;DHT22;5783;55.174;61.310;2023-08-06T00:33:16;27.10;59.50
11454;DHT22;5783;55.174;61.310;2023-08-06T00:35:45;27.10;59.40
11454;DHT22;5783;55.174;61.310;2023-08-06T00:38:13;27.10;59.50
11454;DHT22;5783;55.174;61.310;2023-08-06T00:40:41;27.10;59.50
11454;DHT22;5783;55.174;61.310;2023-08-06T00:43:09;27.10;59.50
11454;DHT22;5783;55.174;61.310;2023-08-06T00:45:37;27.10;59.50
11454;DHT22;5783;55.174;61.310;2023-08-06T00:48:05;27.10;58.90
11454;DHT22;5783;55.174;61.310;2023-08-06T00:50:34;27.10;59.50
11454;DHT22;5783;55.174;61.310;2023-08-06T00:53:03;27.10;59.70
11454;DHT22;5783;55.174;61.310;2023-08-06T00:55:31;27.10;59.50
11454;DHT22;5783;55.174;61.310;2023-08-06T00:58:00;27.10;59.50
11454;DHT22;5783;55.174;61.310;2023-08-06T01:00:29;27.10;59.50
11454;DHT22;5783;55.174;61.310;2023-08-06T01:02:57;27.10;59.50
11454;DHT22;5783;55.174;61.310;2023-08-06T01:05:26;27.10;59.50
11454;DHT22;5783;55.174;61.310;2023-08-06T01:16:19;27.00;59.50
11454;DHT22;5783;55.174;61.310;2023-08-06T01:18:47;27.00;59.00
11454;DHT22;5783;55.174;61.310;2023-08-06T01:21:16;27.00;59.60
11454;DHT22;5783;55.174;61.310;2023-08-06T01:23:45;27.00;59.50
11454;DHT22;5783;55.174;61.310;2023-08-06T01:26:15;27.00;59.50
11454;DHT22;5783;55.174;61.310;2023-08-06T01:31:31;27.00;59.50
11454;DHT22;5783;55.174;61.310;2023-08-06T01:34:01;27.00;59.60
11454;DHT22;5783;55.174;61.310;2023-08-06T01:36:29;27.00;59.60
11454;DHT22;5783;55.174;61.310;2023-08-06T01:38:58;27.00;59.50
11454;DHT22;5783;55.174;61.310;2023-08-06T01:41:26;27.00;59.50
11454;DHT22;5783;55.174;61.310;2023-08-06T01:43:54;27.00;59.50
11454;DHT22;5783;55.174;61.310;2023-08-06T01:46:22;27.00;59.50
11454;DHT22;5783;55.174;61.310;2023-08-06T01:48:51;27.00;59.40
11454;DHT22;5783;55.174;61.310;2023-08-06T01:51:19;27.00;59.40
11454;DHT22;5783;55.174;61.310;2023-08-06T01:53:47;27.00;59.50
11454;DHT22;5783;55.174;61.310;2023-08-06T01:56:15;27.00;59.50
11454;DHT22;5783;55.174;61.310;2023-08-06T01:58:43;27.00;59.40
11454;DHT22;5783;55.174;61.310;2023-08-06T02:01:12;27.00;59.50
11454;DHT22;5783;55.174;61.310;2023-08-06T02:03:40;27.00;59.50
11454;DHT22;5783;55.174;61.310;2023-08-06T02:06:08;27.00;59.50
11454;DHT22;5783;55.174;61.310;2023-08-06T02:08:36;27.00;59.60
11454;DHT22;5783;55.174;61.310;2023-08-06T02:11:06;27.00;59.60
11454;DHT22;5783;55.174;61.310;2023-08-06T02:13:34;27.00;59.60
11454;DHT22;5783;55.174;61.310;2023-08-06T02:16:03;27.00;59.70
11454;DHT22;5783;55.174;61.310;2023-08-06T02:18:31;27.00;59.60
11454;DHT22;5783;55.174;61.310;2023-08-06T02:20:59;27.00;59.70
11454;DHT22;5783;55.174;61.310;2023-08-06T02:23:27;27.00;59.70
11454;DHT22;5783;55.174;61.310;2023-08-06T02:28:43;27.00;59.70
11454;DHT22;5783;55.174;61.310;2023-08-06T02:31:11;27.00;59.80
11454;DHT22;5783;55.174;61.310;2023-08-06T02:33:40;27.00;59.80
11454;DHT22;5783;55.174;61.310;2023-08-06T02:36:08;27.00;59.90
11454;DHT22;5783;55.174;61.310;2023-08-06T02:38:37;27.00;59.80
11454;DHT22;5783;55.174;61.310;2023-08-06T02:41:05;27.00;59.80
11454;DHT22;5783;55.174;61.310;2023-08-06T02:43:33;27.00;59.80
11454;DHT22;5783;55.174;61.310;2023-08-06T02:46:01;27.00;60.00
11454;DHT22;5783;55.174;61.310;2023-08-06T02:48:31;27.00;59.80
11454;DHT22;5783;55.174;61.310;2023-08-06T02:50:59;27.00;59.80
11454;DHT22;5783;55.174;61.310;2023-08-06T02:53:28;27.00;59.80
11454;DHT22;5783;55.174;61.310;2023-08-06T02:55:58;27.00;59.80
11454;DHT22;5783;55.174;61.310;2023-08-06T02:58:26;27.00;59.80
11454;DHT22;5783;55.174;61.310;2023-08-06T03:03:42;27.00;60.00
11454;DHT22;5783;55.174;61.310;2023-08-06T03:06:10;27.00;60.00
11454;DHT22;5783;55.174;61.310;2023-08-06T03:08:38;27.00;60.00
11454;DHT22;5783;55.174;61.310;2023-08-06T03:11:07;27.00;59.90
11454;DHT22;5783;55.174;61.310;2023-08-06T03:13:35;27.00;59.90
11454;DHT22;5783;55.174;61.310;2023-08-06T03:16:03;27.00;60.00
11454;DHT22;5783;55.174;61.310;2023-08-06T03:18:31;27.00;59.90
11454;DHT22;5783;55.174;61.310;2023-08-06T03:21:00;27.00;59.90
11454;DHT22;5783;55.174;61.310;2023-08-06T03:23:28;27.00;59.90
11454;DHT22;5783;55.174;61.310;2023-08-06T03:25:56;27.00;59.90
11454;DHT22;5783;55.174;61.310;2023-08-06T03:28:24;27.00;59.90
11454;DHT22;5783;55.174;61.310;2023-08-06T03:33:40;27.00;59.80
11454;DHT22;5783;55.174;61.310;2023-08-06T03:36:08;27.00;59.90
11454;DHT22;5783;55.174;61.310;2023-08-06T03:38:36;27.00;59.80
11454;DHT22;5783;55.174;61.310;2023-08-06T03:41:04;27.00;59.90
11454;DHT22;5783;55.174;61.310;2023-08-06T03:43:32;27.00;59.80
11454;DHT22;5783;55.174;61.310;2023-08-06T03:46:01;27.00;59.80
11454;DHT22;5783;55.174;61.310;2023-08-06T03:48:29;27.00;59.80
11454;DHT22;5783;55.174;61.310;2023-08-06T03:50:57;27.00;59.80
11454;DHT22;5783;55.174;61.310;2023-08-06T03:53:27;27.00;59.80
11454;DHT22;5783;55.174;61.310;2023-08-06T03:55:55;27.00;59.80
11454;DHT22;5783;55.174;61.310;2023-08-06T03:58:25;27.00;59.80
11454;DHT22;5783;55.174;61.310;2023-08-06T04:03:40;27.00;59.80
11454;DHT22;5783;55.174;61.310;2023-08-06T04:06:09;27.00;59.80
11454;DHT22;5783;55.174;61.310;2023-08-06T04:08:37;27.00;59.80
11454;DHT22;5783;55.174;61.310;2023-08-06T04:11:05;27.00;59.90
11454;DHT22;5783;55.174;61.310;2023-08-06T04:13:33;27.00;59.80
11454;DHT22;5783;55.174;61.310;2023-08-06T04:16:02;27.10;59.80
11454;DHT22;5783;55.174;61.310;2023-08-06T04:18:31;27.10;59.80
11454;DHT22;5783;55.174;61.310;2023-08-06T04:20:59;27.10;59.70
11454;DHT22;5783;55.174;61.310;2023-08-06T04:23:29;27.00;60.00
11454;DHT22;5783;55.174;61.310;2023-08-06T04:25:58;27.00;60.20
11454;DHT22;5783;55.174;61.310;2023-08-06T04:28:28;26.90;60.00
11454;DHT22;5783;55.174;61.310;2023-08-06T04:30:56;26.90;60.20
11454;DHT22;5783;55.174;61.310;2023-08-06T04:33:25;26.90;60.30
11454;DHT22;5783;55.174;61.310;2023-08-06T04:35:55;26.80;60.10
11454;DHT22;5783;55.174;61.310;2023-08-06T04:38:23;26.90;60.10
11454;DHT22;5783;55.174;61.310;2023-08-06T04:40:52;26.80;59.90
11454;DHT22;5783;55.174;61.310;2023-08-06T04:43:20;26.90;59.80
11454;DHT22;5783;55.174;61.310;2023-08-06T04:45:49;26.80;59.50
11454;DHT22;5783;55.174;61.310;2023-08-06T04:48:20;26.90;59.40
11454;DHT22;5783;55.174;61.310;2023-08-06T04:50:49;26.90;59.40
11454;DHT22;5783;55.174;61.310;2023-08-06T04:53:18;26.90;59.40
11454;DHT22;5783;55.174;61.310;2023-08-06T04:55:47;26.90;59.20
11454;DHT22;5783;55.174;61.310;2023-08-06T04:58:16;26.90;59.00
11454;DHT22;5783;55.174;61.310;2023-08-06T05:00:44;27.00;59.00
11454;DHT22;5783;55.174;61.310;2023-08-06T05:03:12;27.00;58.90
11454;DHT22;5783;55.174;61.310;2023-08-06T05:05:40;27.00;58.30
11454;DHT22;5783;55.174;61.310;2023-08-06T05:08:13;27.00;58.10
11454;DHT22;5783;55.174;61.310;2023-08-06T05:10:38;27.00;58.20
11454;DHT22;5783;55.174;61.310;2023-08-06T05:13:08;27.00;58.20
11454;DHT22;5783;55.174;61.310;2023-08-06T05:15:36;27.00;58.20
11454;DHT22;5783;55.174;61.310;2023-08-06T05:18:05;27.00;58.20
11454;DHT22;5783;55.174;61.310;2023-08-06T05:23:21;27.00;57.90
11454;DHT22;5783;55.174;61.310;2023-08-06T05:25:49;27.00;59.00
11454;DHT22;5783;55.174;61.310;2023-08-06T05:28:17;27.00;58.90
11454;DHT22;5783;55.174;61.310;2023-08-06T05:30:46;27.10;59.20
11454;DHT22;5783;55.174;61.310;2023-08-06T05:33:15;27.10;59.30
11454;DHT22;5783;55.174;61.310;2023-08-06T05:35:43;27.10;59.50
11454;DHT22;5783;55.174;61.310;2023-08-06T05:38:11;27.10;59.50
11454;DHT22;5783;55.174;61.310;2023-08-06T05:40:39;27.10;59.40
11454;DHT22;5783;55.174;61.310;2023-08-06T05:43:07;27.10;59.30
11454;DHT22;5783;55.174;61.310;2023-08-06T05:45:36;27.10;59.50
11454;DHT22;5783;55.174;61.310;2023-08-06T05:48:04;27.10;59.50
11454;DHT22;5783;55.174;61.310;2023-08-06T05:50:33;27.10;59.70
11454;DHT22;5783;55.174;61.310;2023-08-06T05:53:01;27.10;59.80
11454;DHT22;5783;55.174;61.310;2023-08-06T05:55:29;27.10;60.10
11454;DHT22;5783;55.174;61.310;2023-08-06T05:57:58;27.10;60.30
11454;DHT22;5783;55.174;61.310;2023-08-06T06:00:27;27.10;60.60
11454;DHT22;5783;55.174;61.310;2023-08-06T06:02:55;27.10;60.70
11454;DHT22;5783;55.174;61.310;2023-08-06T06:05:23;27.10;60.80
11454;DHT22;5783;55.174;61.310;2023-08-06T06:07:51;27.10;61.00
11454;DHT22;5783;55.174;61.310;2023-08-06T06:10:20;27.10;61.00
11454;DHT22;5783;55.174;61.310;2023-08-06T06:12:48;27.10;61.10
11454;DHT22;5783;55.174;61.310;2023-08-06T06:15:16;27.20;61.00
11454;DHT22;5783;55.174;61.310;2023-08-06T06:17:45;27.10;61.00
11454;DHT22;5783;55.174;61.310;2023-08-06T06:20:14;27.20;60.90
11454;DHT22;5783;55.174;61.310;2023-08-06T06:22:42;27.20;60.90
11454;DHT22;5783;55.174;61.310;2023-08-06T06:25:10;27.20;60.60
11454;DHT22;5783;55.174;61.310;2023-08-06T06:27:39;27.20;60.80
11454;DHT22;5783;55.174;61.310;2023-08-06T06:30:07;27.20;60.80
11454;DHT22;5783;55.174;61.310;2023-08-06T06:32:37;27.20;60.40
11454;DHT22;5783;55.174;61.310;2023-08-06T06:35:06;27.20;60.20
11454;DHT22;5783;55.174;61.310;2023-08-06T06:37:35;27.20;60.00
11454;DHT22;5783;55.174;61.310;2023-08-06T06:40:03;27.20;59.90
11454;DHT22;5783;55.174;61.310;2023-08-06T06:42:31;27.30;59.80
11454;DHT22;5783;55.174;61.310;2023-08-06T06:44:59;27.30;59.90
11454;DHT22;5783;55.174;61.310;2023-08-06T06:47:29;27.30;60.00
11454;DHT22;5783;55.174;61.310;2023-08-06T06:49:57;27.30;60.10
11454;DHT22;5783;55.174;61.310;2023-08-06T06:52:25;27.30;60.40
11454;DHT22;5783;55.174;61.310;2023-08-06T06:54:53;27.30;60.40
11454;DHT22;5783;55.174;61.310;2023-08-06T06:57:22;27.30;60.40
11454;DHT22;5783;55.174;61.310;2023-08-06T06:59:50;27.30;60.60
11454;DHT22;5783;55.174;61.310;2023-08-06T07:02:18;27.30;61.30
11454;DHT22;5783;55.174;61.310;2023-08-06T07:04:46;27.30;61.60
11454;DHT22;5783;55.174;61.310;2023-08-06T07:07:14;27.40;61.60
11454;DHT22;5783;55.174;61.310;2023-08-06T07:09:42;27.40;61.50
11454;DHT22;5783;55.174;61.310;2023-08-06T07:12:10;27.40;61.40
11454;DHT22;5783;55.174;61.310;2023-08-06T07:14:39;27.40;61.40
11454;DHT22;5783;55.174;61.310;2023-08-06T07:17:07;27.40;61.50
11454;DHT22;5783;55.174;61.310;2023-08-06T07:19:35;27.40;61.60
11454;DHT22;5783;55.174;61.310;2023-08-06T07:22:03;27.40;61.90
11454;DHT22;5783;55.174;61.310;2023-08-06T07:24:31;27.30;61.80
11454;DHT22;5783;55.174;61.310;2023-08-06T07:26:59;27.40;61.90
11454;DHT22;5783;55.174;61.310;2023-08-06T07:29:28;27.40;61.90
11454;DHT22;5783;55.174;61.310;2023-08-06T07:31:56;27.40;60.60
11454;DHT22;5783;55.174;61.310;2023-08-06T07:34:24;27.40;58.50
11454;DHT22;5783;55.174;61.310;2023-08-06T07:36:52;27.40;56.70
11454;DHT22;5783;55.174;61.310;2023-08-06T07:39:20;27.30;56.40
11454;DHT22;5783;55.174;61.310;2023-08-06T07:41:49;27.30;56.50
11454;DHT22;5783;55.174;61.310;2023-08-06T07:44:17;27.30;56.60
11454;DHT22;5783;55.174;61.310;2023-08-06T07:46:45;27.40;57.20
11454;DHT22;5783;55.174;61.310;2023-08-06T07:49:14;27.40;57.80
11454;DHT22;5783;55.174;61.310;2023-08-06T07:51:42;27.40;57.90
11454;DHT22;5783;55.174;61.310;2023-08-06T07:54:11;27.40;57.90
11454;DHT22;5783;55.174;61.310;2023-08-06T07:56:39;27.40;58.00
11454;DHT22;5783;55.174;61.310;2023-08-06T07:59:07;27.40;58.10
11454;DHT22;5783;55.174;61.310;2023-08-06T08:01:35;27.40;58.00
11454;DHT22;5783;55.174;61.310;2023-08-06T08:04:04;27.40;58.10
11454;DHT22;5783;55.174;61.310;2023-08-06T08:06:33;27.50;58.20
11454;DHT22;5783;55.174;61.310;2023-08-06T08:09:01;27.50;58.30
11454;DHT22;5783;55.174;61.310;2023-08-06T08:11:30;27.50;58.30
11454;DHT22;5783;55.174;61.310;2023-08-06T08:13:58;27.50;58.30
11454;DHT22;5783;55.174;61.310;2023-08-06T08:16:26;27.50;58.30
11454;DHT22;5783;55.174;61.310;2023-08-06T08:18:54;27.50;58.50
11454;DHT22;5783;55.174;61.310;2023-08-06T08:21:22;27.50;58.40
11454;DHT22;5783;55.174;61.310;2023-08-06T08:23:50;27.50;58.40
11454;DHT22;5783;55.174;61.310;2023-08-06T08:26:19;27.50;58.40
11454;DHT22;5783;55.174;61.310;2023-08-06T08:28:47;27.50;58.40
11454;DHT22;5783;55.174;61.310;2023-08-06T08:31:15;27.40;58.40
11454;DHT22;5783;55.174;61.310;2023-08-06T08:33:43;27.50;58.50
11454;DHT22;5783;55.174;61.310;2023-08-06T08:36:11;27.50;58.00
11454;DHT22;5783;55.174;61.310;2023-08-06T08:38:40;27.50;58.60
11454;DHT22;5783;55.174;61.310;2023-08-06T08:41:09;27.50;58.60
11454;DHT22;5783;55.174;61.310;2023-08-06T08:43:37;27.50;58.60
11454;DHT22;5783;55.174;61.310;2023-08-06T08:46:06;27.50;58.80
11454;DHT22;5783;55.174;61.310;2023-08-06T08:48:36;27.40;58.60
11454;DHT22;5783;55.174;61.310;2023-08-06T08:51:04;27.50;58.70
11454;DHT22;5783;55.174;61.310;2023-08-06T08:53:34;27.50;58.80
11454;DHT22;5783;55.174;61.310;2023-08-06T08:56:04;27.40;59.40
11454;DHT22;5783;55.174;61.310;2023-08-06T08:58:33;27.40;58.80
11454;DHT22;5783;55.174;61.310;2023-08-06T09:01:01;27.40;58.80
11454;DHT22;5783;55.174;61.310;2023-08-06T09:03:30;27.40;59.30
11454;DHT22;5783;55.174;61.310;2023-08-06T09:06:00;27.30;60.20
11454;DHT22;5783;55.174;61.310;2023-08-06T09:08:30;27.30;60.10
11454;DHT22;5783;55.174;61.310;2023-08-06T09:10:58;27.20;60.10
11454;DHT22;5783;55.174;61.310;2023-08-06T09:13:28;27.10;60.10
11454;DHT22;5783;55.174;61.310;2023-08-06T09:15:56;27.00;60.10
11454;DHT22;5783;55.174;61.310;2023-08-06T09:18:25;27.00;60.40
11454;DHT22;5783;55.174;61.310;2023-08-06T09:21:13;26.90;60.50
11454;DHT22;5783;55.174;61.310;2023-08-06T09:24:01;26.80;60.20
11454;DHT22;5783;55.174;61.310;2023-08-06T09:26:33;26.70;59.80
11454;DHT22;5783;55.174;61.310;2023-08-06T09:29:00;26.70;60.80
11454;DHT22;5783;55.174;61.310;2023-08-06T09:34:39;26.60;61.60
11454;DHT22;5783;55.174;61.310;2023-08-06T09:37:09;26.50;61.10
11454;DHT22;5783;55.174;61.310;2023-08-06T09:39:39;26.50;60.90
11454;DHT22;5783;55.174;61.310;2023-08-06T09:42:08;26.50;61.50
11454;DHT22;5783;55.174;61.310;2023-08-06T09:44:39;26.40;62.30
11454;DHT22;5783;55.174;61.310;2023-08-06T09:49:51;26.40;61.80
11454;DHT22;5783;55.174;61.310;2023-08-06T09:52:20;26.40;61.80
11454;DHT22;5783;55.174;61.310;2023-08-06T09:54:51;26.40;62.30
11454;DHT22;5783;55.174;61.310;2023-08-06T09:57:21;26.40;62.40
11454;DHT22;5783;55.174;61.310;2023-08-06T09:59:53;26.30;62.50
11454;DHT22;5783;55.174;61.310;2023-08-06T10:02:23;26.30;62.20
11454;DHT22;5783;55.174;61.310;2023-08-06T10:04:55;26.30;62.50
11454;DHT22;5783;55.174;61.310;2023-08-06T10:07:25;26.30;62.50
11454;DHT22;5783;55.174;61.310;2023-08-06T10:09:54;26.30;62.40
11454;DHT22;5783;55.174;61.310;2023-08-06T10:12:24;26.30;63.20
11454;DHT22;5783;55.174;61.310;2023-08-06T10:14:56;26.30;63.50
11454;DHT22;5783;55.174;61.310;2023-08-06T10:17:26;26.30;63.50
11454;DHT22;5783;55.174;61.310;2023-08-06T10:19:56;26.30;63.40
11454;DHT22;5783;55.174;61.310;2023-08-06T10:22:25;26.30;63.80
11454;DHT22;5783;55.174;61.310;2023-08-06T10:28:22;26.30;63.90
11454;DHT22;5783;55.174;61.310;2023-08-06T10:30:53;26.30;63.40
11454;DHT22;5783;55.174;61.310;2023-08-06T10:35:51;26.20;62.60
11454;DHT22;5783;55.174;61.310;2023-08-06T10:38:22;26.20;63.30
11454;DHT22;5783;55.174;61.310;2023-08-06T10:44:21;26.20;62.80
11454;DHT22;5783;55.174;61.310;2023-08-06T10:46:50;26.10;62.60
11454;DHT22;5783;55.174;61.310;2023-08-06T10:49:19;26.10;62.80
11454;DHT22;5783;55.174;61.310;2023-08-06T10:51:48;26.10;62.90
11454;DHT22;5783;55.174;61.310;2023-08-06T10:54:18;26.10;62.90
11454;DHT22;5783;55.174;61.310;2023-08-06T10:56:47;26.20;62.60
11454;DHT22;5783;55.174;61.310;2023-08-06T10:59:16;26.20;62.30
11454;DHT22;5783;55.174;61.310;2023-08-06T11:01:46;26.20;61.50
11454;DHT22;5783;55.174;61.310;2023-08-06T11:04:15;26.20;61.20
11454;DHT22;5783;55.174;61.310;2023-08-06T11:06:51;26.20;61.10
11454;DHT22;5783;55.174;61.310;2023-08-06T11:09:18;26.30;61.40
11454;DHT22;5783;55.174;61.310;2023-08-06T11:11:47;26.30;61.50
11454;DHT22;5783;55.174;61.310;2023-08-06T11:14:16;26.30;61.70
11454;DHT22;5783;55.174;61.310;2023-08-06T11:16:45;26.30;61.60
11454;DHT22;5783;55.174;61.310;2023-08-06T11:19:14;26.30;61.40
11454;DHT22;5783;55.174;61.310;2023-08-06T11:21:44;26.30;60.70
11454;DHT22;5783;55.174;61.310;2023-08-06T11:24:14;26.30;56.20
11454;DHT22;5783;55.174;61.310;2023-08-06T11:26:43;26.20;53.30
11454;DHT22;5783;55.174;61.310;2023-08-06T11:29:12;26.10;51.60
11454;DHT22;5783;55.174;61.310;2023-08-06T11:31:43;25.90;50.80
11454;DHT22;5783;55.174;61.310;2023-08-06T11:34:12;25.90;50.00
11454;DHT22;5783;55.174;61.310;2023-08-06T11:36:41;25.80;49.50
11454;DHT22;5783;55.174;61.310;2023-08-06T11:39:11;25.70;48.70
11454;DHT22;5783;55.174;61.310;2023-08-06T11:41:40;25.60;48.30
11454;DHT22;5783;55.174;61.310;2023-08-06T11:44:12;25.60;48.20
11454;DHT22;5783;55.174;61.310;2023-08-06T11:47:01;25.40;47.80
11454;DHT22;5783;55.174;61.310;2023-08-06T11:49:50;25.40;47.70
11454;DHT22;5783;55.174;61.310;2023-08-06T11:52:23;25.30;47.70
11454;DHT22;5783;55.174;61.310;2023-08-06T11:55:12;25.10;47.70
11454;DHT22;5783;55.174;61.310;2023-08-06T11:57:44;25.00;47.60
11454;DHT22;5783;55.174;61.310;2023-08-06T12:00:14;25.00;47.80
11454;DHT22;5783;55.174;61.310;2023-08-06T12:03:04;24.90;49.80
11454;DHT22;5783;55.174;61.310;2023-08-06T12:05:33;24.90;56.60
11454;DHT22;5783;55.174;61.310;2023-08-06T12:08:04;24.90;58.90
11454;DHT22;5783;55.174;61.310;2023-08-06T12:10:33;25.00;61.10
11454;DHT22;5783;55.174;61.310;2023-08-06T12:13:02;25.00;63.10
11454;DHT22;5783;55.174;61.310;2023-08-06T12:15:32;25.10;64.80
11454;DHT22;5783;55.174;61.310;2023-08-06T12:18:01;25.20;66.10
11454;DHT22;5783;55.174;61.310;2023-08-06T12:20:30;25.20;67.00
11454;DHT22;5783;55.174;61.310;2023-08-06T12:22:59;25.30;67.40
11454;DHT22;5783;55.174;61.310;2023-08-06T12:25:28;25.40;65.90
11454;DHT22;5783;55.174;61.310;2023-08-06T12:27:57;25.40;62.30
11454;DHT22;5783;55.174;61.310;2023-08-06T12:30:27;25.50;60.50
11454;DHT22;5783;55.174;61.310;2023-08-06T12:32:56;25.60;59.80
11454;DHT22;5783;55.174;61.310;2023-08-06T12:35:25;25.60;59.20
11454;DHT22;5783;55.174;61.310;2023-08-06T12:37:54;25.70;58.80
11454;DHT22;5783;55.174;61.310;2023-08-06T12:40:25;25.70;59.00
11454;DHT22;5783;55.174;61.310;2023-08-06T12:42:54;25.80;58.40
11454;DHT22;5783;55.174;61.310;2023-08-06T12:45:25;25.80;57.80
11454;DHT22;5783;55.174;61.310;2023-08-06T12:47:54;25.90;57.50
11454;DHT22;5783;55.174;61.310;2023-08-06T12:50:23;25.90;57.50
11454;DHT22;5783;55.174;61.310;2023-08-06T12:52:52;25.90;57.80
11454;DHT22;5783;55.174;61.310;2023-08-06T12:55:22;25.90;57.30
11454;DHT22;5783;55.174;61.310;2023-08-06T12:57:51;25.90;57.10
11454;DHT22;5783;55.174;61.310;2023-08-06T13:00:20;26.00;57.20
11454;DHT22;5783;55.174;61.310;2023-08-06T13:02:49;26.00;57.90
11454;DHT22;5783;55.174;61.310;2023-08-06T13:05:18;26.00;57.30
11454;DHT22;5783;55.174;61.310;2023-08-06T13:07:47;26.00;57.50
11454;DHT22;5783;55.174;61.310;2023-08-06T13:10:16;26.10;57.50
11454;DHT22;5783;55.174;61.310;2023-08-06T13:12:47;26.10;57.90
11454;DHT22;5783;55.174;61.310;2023-08-06T13:15:16;26.10;58.00
11454;DHT22;5783;55.174;61.310;2023-08-06T13:17:47;26.10;57.90
11454;DHT22;5783;55.174;61.310;2023-08-06T13:20:16;26.10;58.30
11454;DHT22;5783;55.174;61.310;2023-08-06T13:22:46;26.20;58.20
11454;DHT22;5783;55.174;61.310;2023-08-06T13:25:17;26.10;58.00
11454;DHT22;5783;55.174;61.310;2023-08-06T13:27:47;26.20;58.10
11454;DHT22;5783;55.174;61.310;2023-08-06T13:30:16;26.20;58.20
11454;DHT22;5783;55.174;61.310;2023-08-06T13:32:45;26.20;58.40
11454;DHT22;5783;55.174;61.310;2023-08-06T13:35:14;26.20;58.40
11454;DHT22;5783;55.174;61.310;2023-08-06T13:37:44;26.30;58.40
11454;DHT22;5783;55.174;61.310;2023-08-06T13:40:14;26.30;58.30
11454;DHT22;5783;55.174;61.310;2023-08-06T13:42:44;26.30;58.30
11454;DHT22;5783;55.174;61.310;2023-08-06T13:45:13;26.30;58.40
11454;DHT22;5783;55.174;61.310;2023-08-06T13:47:42;26.30;58.60
11454;DHT22;5783;55.174;61.310;2023-08-06T13:50:11;26.30;58.50
11454;DHT22;5783;55.174;61.310;2023-08-06T13:52:40;26.30;58.50
11454;DHT22;5783;55.174;61.310;2023-08-06T13:55:09;26.30;58.90
11454;DHT22;5783;55.174;61.310;2023-08-06T13:57:39;26.30;59.00
11454;DHT22;5783;55.174;61.310;2023-08-06T14:00:08;26.30;58.70
11454;DHT22;5783;55.174;61.310;2023-08-06T14:02:37;26.30;58.50
11454;DHT22;5783;55.174;61.310;2023-08-06T14:05:07;26.40;59.20
11454;DHT22;5783;55.174;61.310;2023-08-06T14:07:36;26.40;58.70
11454;DHT22;5783;55.174;61.310;2023-08-06T14:10:06;26.40;58.70
11454;DHT22;5783;55.174;61.310;2023-08-06T14:12:36;26.40;59.00
11454;DHT22;5783;55.174;61.310;2023-08-06T14:15:05;26.40;59.20
11454;DHT22;5783;55.174;61.310;2023-08-06T14:17:34;26.40;59.40
11454;DHT22;5783;55.174;61.310;2023-08-06T14:20:04;26.40;59.70
11454;DHT22;5783;55.174;61.310;2023-08-06T14:22:35;26.40;59.70
11454;DHT22;5783;55.174;61.310;2023-08-06T14:25:05;26.40;59.70
11454;DHT22;5783;55.174;61.310;2023-08-06T14:27:34;26.40;59.20
11454;DHT22;5783;55.174;61.310;2023-08-06T14:30:25;26.40;58.80
11454;DHT22;5783;55.174;61.310;2023-08-06T14:32:54;26.40;58.30
11454;DHT22;5783;55.174;61.310;2023-08-06T14:35:23;26.40;57.80
11454;DHT22;5783;55.174;61.310;2023-08-06T14:37:52;26.40;57.70
11454;DHT22;5783;55.174;61.310;2023-08-06T14:40:21;26.40;57.70
11454;DHT22;5783;55.174;61.310;2023-08-06T14:42:52;26.40;57.50
11454;DHT22;5783;55.174;61.310;2023-08-06T14:45:21;26.40;57.60
11454;DHT22;5783;55.174;61.310;2023-08-06T14:47:51;26.40;57.70
11454;DHT22;5783;55.174;61.310;2023-08-06T14:50:20;26.40;57.70
11454;DHT22;5783;55.174;61.310;2023-08-06T14:52:49;26.40;57.80
11454;DHT22;5783;55.174;61.310;2023-08-06T14:58:11;26.40;58.10
11454;DHT22;5783;55.174;61.310;2023-08-06T15:00:40;26.40;58.60
11454;DHT22;5783;55.174;61.310;2023-08-06T15:03:09;26.40;58.80
11454;DHT22;5783;55.174;61.310;2023-08-06T15:05:38;26.40;58.80
11454;DHT22;5783;55.174;61.310;2023-08-06T15:08:07;26.40;59.30
11454;DHT22;5783;55.174;61.310;2023-08-06T15:10:37;26.40;59.30
11454;DHT22;5783;55.174;61.310;2023-08-06T15:13:07;26.40;59.20
11454;DHT22;5783;55.174;61.310;2023-08-06T15:15:36;26.40;59.10
11454;DHT22;5783;55.174;61.310;2023-08-06T15:18:07;26.40;59.20
11454;DHT22;5783;55.174;61.310;2023-08-06T15:20:36;26.50;59.10
11454;DHT22;5783;55.174;61.310;2023-08-06T15:23:07;26.50;59.20
11454;DHT22;5783;55.174;61.310;2023-08-06T15:25:36;26.50;59.20
11454;DHT22;5783;55.174;61.310;2023-08-06T15:28:37;26.50;59.20
11454;DHT22;5783;55.174;61.310;2023-08-06T15:30:37;26.50;59.20
11454;DHT22;5783;55.174;61.310;2023-08-06T15:33:07;26.50;59.20
11454;DHT22;5783;55.174;61.310;2023-08-06T15:35:36;26.50;59.20
11454;DHT22;5783;55.174;61.310;2023-08-06T15:38:05;26.50;59.30
11454;DHT22;5783;55.174;61.310;2023-08-06T15:41:07;26.50;59.20
11454;DHT22;5783;55.174;61.310;2023-08-06T15:43:05;26.50;59.30
11454;DHT22;5783;55.174;61.310;2023-08-06T15:45:34;26.60;59.40
11454;DHT22;5783;55.174;61.310;2023-08-06T15:48:03;26.60;59.30
11454;DHT22;5783;55.174;61.310;2023-08-06T15:50:32;26.60;59.30
11454;DHT22;5783;55.174;61.310;2023-08-06T15:53:01;26.50;59.40
11454;DHT22;5783;55.174;61.310;2023-08-06T15:55:30;26.50;59.40
11454;DHT22;5783;55.174;61.310;2023-08-06T15:58:01;26.50;59.60
11454;DHT22;5783;55.174;61.310;2023-08-06T16:00:31;26.50;59.60
11454;DHT22;5783;55.174;61.310;2023-08-06T16:02:59;26.60;59.70
11454;DHT22;5783;55.174;61.310;2023-08-06T16:05:28;26.50;59.60
11454;DHT22;5783;55.174;61.310;2023-08-06T16:07:57;26.60;59.70
11454;DHT22;5783;55.174;61.310;2023-08-06T16:10:25;26.60;59.50
11454;DHT22;5783;55.174;61.310;2023-08-06T16:12:53;26.60;59.60
11454;DHT22;5783;55.174;61.310;2023-08-06T16:15:23;26.60;59.70
11454;DHT22;5783;55.174;61.310;2023-08-06T16:17:52;26.60;59.70
11454;DHT22;5783;55.174;61.310;2023-08-06T16:20:21;26.50;59.80
11454;DHT22;5783;55.174;61.310;2023-08-06T16:22:50;26.60;59.80
11454;DHT22;5783;55.174;61.310;2023-08-06T16:25:19;26.60;59.90